Time;durP1;ratioP1;P1;durP2;ratioP2;P2;SDS_P1;SDS_P2;PMS_P1;PMS_P2;Temp;Humidity;BMP_temperature;BMP_pressure;BME280_temperature;BME280_humidity;BME280_pressure;Samples;Min_cycle;Max_cycle;Signal;HPM_P1;HPM_P2
2023/06/04 00:00:57;;;;;;;2.05;1.10;;;;;;;;;;5056899;28;20574;-81
2023/06/04 00:03:25;;;;;;;0.90;0.90;;;;;;;;;;5057892;28;20197;-82
2023/06/04 00:05:53;;;;;;;5.45;4.93;;;;;;;;;;5057032;28;20288;-82
2023/06/04 00:08:21;;;;;;;20.33;16.00;;;;;;;;;;5054421;28;20248;-83
2023/06/04 00:10:49;;;;;;;8.38;5.88;;;;;;;;;;5057635;28;20213;-82
2023/06/04 00:13:16;;;;;;;4.72;3.00;;;;;;;;;;5057383;28;20289;-83
2023/06/04 00:15:44;;;;;;;2.10;1.98;;;;;;;;;;5053472;28;20289;-82
2023/06/04 00:18:13;;;;;;;2.38;1.63;;;;;;;;;;5079583;22;20697;-80
2023/06/04 00:20:40;;;;;;;1.30;1.20;;;;;;;;;;5053872;28;20196;-81
2023/06/04 00:23:09;;;;;;;2.53;1.30;;;;;;;;;;5056094;28;20305;-81
2023/06/04 00:25:37;;;;;;;3.00;1.00;;;;;;;;;;5053583;28;20292;-79
2023/06/04 00:28:04;;;;;;;1.10;0.88;;;;;;;;;;5055400;28;20607;-79
2023/06/04 00:30:32;;;;;;;1.58;1.48;;;;;;;;;;5054850;28;20202;-78
2023/06/04 00:32:59;;;;;;;0.82;0.82;;;;;;;;;;5055895;28;20285;-80
2023/06/04 00:35:27;;;;;;;1.30;1.17;;;;;;;;;;5055595;28;20206;-79
2023/06/04 00:37:54;;;;;;;1.58;1.48;;;;;;;;;;5052999;28;20671;-78
2023/06/04 00:40:23;;;;;;;1.00;1.00;;;;;;;;;;5054747;28;20205;-80
2023/06/04 00:42:50;;;;;;;0.90;0.90;;;;;;;;;;5055225;28;20281;-78
2023/06/04 00:45:20;;;;;;;1.27;1.00;;;;;;;;;;5056955;28;20288;-80
2023/06/04 00:47:47;;;;;;;2.47;1.60;;;;;;;;;;5055991;28;20243;-80
2023/06/04 00:50:15;;;;;;;1.75;0.90;;;;;;;;;;5058945;28;20198;-77
2023/06/04 00:52:43;;;;;;;1.08;1.00;;;;;;;;;;5061795;28;20578;-78
2023/06/04 00:55:11;;;;;;;1.20;1.00;;;;;;;;;;5061845;28;20280;-77
2023/06/04 00:57:40;;;;;;;1.05;0.95;;;;;;;;;;5061818;28;20260;-78
2023/06/04 01:00:09;;;;;;;1.13;1.02;;;;;;;;;;5051496;28;20198;-77
2023/06/04 01:02:40;;;;;;;1.63;1.30;;;;;;;;;;5058976;28;20622;-78
2023/06/04 01:05:16;;;;;;;1.10;1.10;;;;;;;;;;5055300;28;20285;-79
2023/06/04 01:07:46;;;;;;;1.10;0.90;;;;;;;;;;5049982;28;20247;-78
2023/06/04 01:10:14;;;;;;;1.42;1.23;;;;;;;;;;5052376;28;20229;-78
2023/06/04 01:12:43;;;;;;;1.40;1.30;;;;;;;;;;5045517;28;20273;-79
2023/06/04 01:15:12;;;;;;;0.90;0.90;;;;;;;;;;5060173;28;20671;-79
2023/06/04 01:17:42;;;;;;;2.17;1.67;;;;;;;;;;5052491;28;20225;-79
2023/06/04 01:20:26;;;;;;;0.90;0.90;;;;;;;;;;5049911;28;20285;-79
2023/06/04 01:23:14;;;;;;;0.95;0.95;;;;;;;;;;5045309;28;20197;-78
2023/06/04 01:25:43;;;;;;;1.08;1.08;;;;;;;;;;5048060;28;20204;-79
2023/06/04 01:28:15;;;;;;;1.00;1.00;;;;;;;;;;5054108;28;20210;-78
2023/06/04 01:30:47;;;;;;;1.15;0.93;;;;;;;;;;5054188;28;20556;-78
2023/06/04 01:33:18;;;;;;;1.60;1.50;;;;;;;;;;5050776;28;20596;-79
2023/06/04 01:35:46;;;;;;;1.48;1.05;;;;;;;;;;5034523;28;20212;-79
2023/06/04 01:38:14;;;;;;;1.27;1.20;;;;;;;;;;5043111;28;20697;-78
2023/06/04 01:40:41;;;;;;;1.20;1.10;;;;;;;;;;5052708;28;20208;-79
2023/06/04 01:43:10;;;;;;;1.63;1.50;;;;;;;;;;5047630;28;20631;-78
2023/06/04 01:45:38;;;;;;;1.38;1.20;;;;;;;;;;5053951;28;20208;-79
2023/06/04 01:48:07;;;;;;;1.10;1.10;;;;;;;;;;5052925;28;20225;-78
2023/06/04 01:50:34;;;;;;;1.67;1.58;;;;;;;;;;5052435;28;20204;-79
2023/06/04 01:53:02;;;;;;;1.33;1.25;;;;;;;;;;5043417;28;20230;-77
2023/06/04 01:55:33;;;;;;;1.20;1.10;;;;;;;;;;5041523;28;20297;-78
2023/06/04 01:58:01;;;;;;;1.60;1.45;;;;;;;;;;5046616;28;20298;-78
2023/06/04 02:00:31;;;;;;;1.73;1.20;;;;;;;;;;5050959;28;20205;-78
2023/06/04 02:02:59;;;;;;;1.95;1.35;;;;;;;;;;5054067;28;20194;-78
2023/06/04 02:05:26;;;;;;;1.40;1.30;;;;;;;;;;5050932;28;20292;-79
2023/06/04 02:07:54;;;;;;;1.35;1.25;;;;;;;;;;5051578;28;20221;-79
2023/06/04 02:10:22;;;;;;;2.00;1.63;;;;;;;;;;5051787;28;20201;-80
2023/06/04 02:12:58;;;;;;;3.13;1.35;;;;;;;;;;5052849;28;20279;-76
2023/06/04 02:15:27;;;;;;;1.00;1.00;;;;;;;;;;5050906;28;20193;-80
2023/06/04 02:17:59;;;;;;;1.10;1.10;;;;;;;;;;5052549;28;20316;-78
2023/06/04 02:20:27;;;;;;;1.45;1.30;;;;;;;;;;5050110;28;20198;-79
2023/06/04 02:22:55;;;;;;;1.05;1.05;;;;;;;;;;5049414;28;20682;-77
2023/06/04 02:25:24;;;;;;;1.20;1.20;;;;;;;;;;5047633;28;20212;-79
2023/06/04 02:27:53;;;;;;;2.03;1.67;;;;;;;;;;5047266;28;20228;-78
2023/06/04 02:30:20;;;;;;;1.38;1.23;;;;;;;;;;5054212;28;20230;-78
2023/06/04 02:32:50;;;;;;;1.60;1.30;;;;;;;;;;5055055;28;20231;-79
2023/06/04 02:35:20;;;;;;;2.80;2.00;;;;;;;;;;5057695;28;20704;-79
2023/06/04 02:37:48;;;;;;;1.27;1.23;;;;;;;;;;5059015;28;20244;-78
2023/06/04 02:40:15;;;;;;;1.95;1.67;;;;;;;;;;5058286;28;20293;-78
2023/06/04 02:42:43;;;;;;;1.52;1.30;;;;;;;;;;5066359;28;20647;-77
2023/06/04 02:45:12;;;;;;;1.90;1.33;;;;;;;;;;5057367;28;20247;-79
2023/06/04 02:47:39;;;;;;;1.23;1.13;;;;;;;;;;5056097;28;20222;-80
2023/06/04 02:50:08;;;;;;;1.35;1.25;;;;;;;;;;5060576;28;20593;-78
2023/06/04 02:52:37;;;;;;;1.58;1.40;;;;;;;;;;5059786;28;20200;-79
2023/06/04 02:55:07;;;;;;;1.15;1.10;;;;;;;;;;5060217;28;20563;-78
2023/06/04 02:57:35;;;;;;;1.42;1.33;;;;;;;;;;5069134;28;20224;-78
2023/06/04 03:00:08;;;;;;;1.35;1.27;;;;;;;;;;5069267;28;20302;-79
2023/06/04 03:02:35;;;;;;;1.95;1.85;;;;;;;;;;5068064;28;20206;-77
2023/06/04 03:05:04;;;;;;;1.35;1.30;;;;;;;;;;5065468;28;20902;-77
2023/06/04 03:07:39;;;;;;;1.60;1.25;;;;;;;;;;5073834;28;20233;-78
2023/06/04 03:10:08;;;;;;;1.30;1.20;;;;;;;;;;5066312;28;20260;-79
2023/06/04 03:12:35;;;;;;;2.47;1.40;;;;;;;;;;5072080;28;20288;-79
2023/06/04 03:15:03;;;;;;;1.38;1.27;;;;;;;;;;5069989;28;20308;-78
2023/06/04 03:17:31;;;;;;;1.30;1.20;;;;;;;;;;5073033;28;20308;-80
2023/06/04 03:19:59;;;;;;;1.40;1.30;;;;;;;;;;5069069;28;20221;-80
2023/06/04 03:22:26;;;;;;;1.80;1.50;;;;;;;;;;5067429;28;20209;-80
2023/06/04 03:24:55;;;;;;;1.50;1.40;;;;;;;;;;5065352;28;20198;-79
2023/06/04 03:27:23;;;;;;;1.55;1.45;;;;;;;;;;5062858;28;20194;-80
2023/06/04 03:29:50;;;;;;;1.35;1.25;;;;;;;;;;5064666;28;20196;-81
2023/06/04 03:32:18;;;;;;;1.45;1.35;;;;;;;;;;5063912;28;21082;-80
2023/06/04 03:34:46;;;;;;;1.45;1.35;;;;;;;;;;5064461;28;20241;-80
2023/06/04 03:37:13;;;;;;;1.50;1.40;;;;;;;;;;5064203;28;20202;-79
2023/06/04 03:39:41;;;;;;;3.88;1.40;;;;;;;;;;5061949;28;20228;-80
2023/06/04 03:42:10;;;;;;;1.50;1.40;;;;;;;;;;5062879;28;20240;-81
2023/06/04 03:44:37;;;;;;;2.40;1.52;;;;;;;;;;5064045;28;20205;-81
2023/06/04 03:47:05;;;;;;;2.25;2.15;;;;;;;;;;5062947;28;20276;-80
2023/06/04 03:49:32;;;;;;;1.42;1.33;;;;;;;;;;5060692;28;20685;-79
2023/06/04 03:52:00;;;;;;;1.25;1.25;;;;;;;;;;5063352;28;20202;-79
2023/06/04 03:54:27;;;;;;;1.58;1.48;;;;;;;;;;5065758;28;22363;-78
2023/06/04 03:56:55;;;;;;;1.38;1.25;;;;;;;;;;5070845;28;20262;-75
2023/06/04 03:59:24;;;;;;;2.83;1.75;;;;;;;;;;5072270;28;20218;-76
2023/06/04 04:01:51;;;;;;;2.97;1.70;;;;;;;;;;5064968;28;20292;-77
2023/06/04 04:04:18;;;;;;;2.70;1.42;;;;;;;;;;5067728;28;20217;-76
2023/06/04 04:06:46;;;;;;;1.13;1.10;;;;;;;;;;5072357;28;20198;-76
2023/06/04 04:09:13;;;;;;;1.45;1.30;;;;;;;;;;5067085;28;20246;-78
2023/06/04 04:11:41;;;;;;;1.55;1.45;;;;;;;;;;5066578;28;20204;-81
2023/06/04 04:14:08;;;;;;;1.08;1.08;;;;;;;;;;5066168;28;20236;-79
2023/06/04 04:16:37;;;;;;;1.63;1.52;;;;;;;;;;5066516;28;20201;-80
2023/06/04 04:19:07;;;;;;;1.52;1.38;;;;;;;;;;5064722;28;20256;-81
2023/06/04 04:21:36;;;;;;;1.40;1.30;;;;;;;;;;5068566;28;20628;-78
2023/06/04 04:24:04;;;;;;;1.50;1.40;;;;;;;;;;5064416;28;20202;-79
2023/06/04 04:26:32;;;;;;;1.30;1.20;;;;;;;;;;5062232;28;20292;-81
2023/06/04 04:28:59;;;;;;;1.58;1.48;;;;;;;;;;5062124;28;20276;-78
2023/06/04 04:31:28;;;;;;;1.30;1.20;;;;;;;;;;5064035;28;20194;-80
2023/06/04 04:33:58;;;;;;;1.40;1.20;;;;;;;;;;5060870;28;20225;-80
2023/06/04 04:36:25;;;;;;;1.40;1.30;;;;;;;;;;5060741;28;20289;-79
2023/06/04 04:38:54;;;;;;;1.60;1.50;;;;;;;;;;5063693;28;20248;-80
2023/06/04 04:41:22;;;;;;;1.25;1.25;;;;;;;;;;5061000;28;20263;-79
2023/06/04 04:43:50;;;;;;;1.52;1.40;;;;;;;;;;5059389;28;20205;-80
2023/06/04 04:46:18;;;;;;;1.50;1.40;;;;;;;;;;5060534;28;20575;-79
2023/06/04 04:48:45;;;;;;;1.30;1.20;;;;;;;;;;5058406;28;20248;-80
2023/06/04 04:51:14;;;;;;;2.78;1.40;;;;;;;;;;5061615;28;20280;-81
2023/06/04 04:53:42;;;;;;;1.50;1.40;;;;;;;;;;5051276;28;20224;-79
2023/06/04 04:56:10;;;;;;;1.75;1.65;;;;;;;;;;5058532;28;20189;-80
2023/06/04 04:58:37;;;;;;;2.22;1.60;;;;;;;;;;5059624;28;20773;-81
2023/06/04 05:01:05;;;;;;;1.30;1.20;;;;;;;;;;5061456;28;20265;-81
2023/06/04 05:03:32;;;;;;;1.10;1.10;;;;;;;;;;5060839;28;20216;-80
2023/06/04 05:05:59;;;;;;;2.30;1.45;;;;;;;;;;5061488;28;20190;-80
2023/06/04 05:08:28;;;;;;;1.77;1.67;;;;;;;;;;5060972;28;20673;-79
2023/06/04 05:10:56;;;;;;;1.83;1.63;;;;;;;;;;5052907;28;20671;-80
2023/06/04 05:13:23;;;;;;;2.22;1.48;;;;;;;;;;5044197;28;20277;-80
2023/06/04 05:15:52;;;;;;;1.40;1.30;;;;;;;;;;5057584;28;20226;-79
2023/06/04 05:18:20;;;;;;;1.98;1.73;;;;;;;;;;5058186;28;20225;-80
2023/06/04 05:20:48;;;;;;;1.60;1.50;;;;;;;;;;5060730;28;20202;-80
2023/06/04 05:23:15;;;;;;;1.63;1.40;;;;;;;;;;5055745;28;20682;-80
2023/06/04 05:25:44;;;;;;;1.73;1.30;;;;;;;;;;5055231;28;20285;-81
2023/06/04 05:28:12;;;;;;;1.27;1.17;;;;;;;;;;5056032;28;20226;-80
2023/06/04 05:30:41;;;;;;;1.40;1.30;;;;;;;;;;5059491;28;20224;-78
2023/06/04 05:33:11;;;;;;;1.77;1.67;;;;;;;;;;5056945;28;21951;-80
2023/06/04 05:35:41;;;;;;;2.28;1.70;;;;;;;;;;5056781;28;20217;-80
2023/06/04 05:38:08;;;;;;;2.15;1.60;;;;;;;;;;5050337;28;20316;-81
2023/06/04 05:40:36;;;;;;;1.52;1.38;;;;;;;;;;5054930;28;20658;-80
2023/06/04 05:43:04;;;;;;;1.40;1.30;;;;;;;;;;5049730;28;20202;-80
2023/06/04 05:45:32;;;;;;;1.35;1.25;;;;;;;;;;5051468;28;20198;-80
2023/06/04 05:48:00;;;;;;;2.53;1.50;;;;;;;;;;5049833;28;20227;-80
2023/06/04 05:50:27;;;;;;;1.17;1.17;;;;;;;;;;5053251;28;20213;-80
2023/06/04 05:52:55;;;;;;;1.90;1.80;;;;;;;;;;5053652;28;20288;-81
2023/06/04 05:55:22;;;;;;;1.13;1.13;;;;;;;;;;5053417;28;20217;-81
2023/06/04 05:57:51;;;;;;;1.50;1.40;;;;;;;;;;5051889;28;20228;-81
2023/06/04 06:00:21;;;;;;;1.75;1.65;;;;;;;;;;5053093;28;20198;-80
2023/06/04 06:02:49;;;;;;;2.03;1.60;;;;;;;;;;5052331;28;20645;-80
2023/06/04 06:05:18;;;;;;;1.70;1.50;;;;;;;;;;5050639;28;20205;-80
2023/06/04 06:07:45;;;;;;;1.65;1.27;;;;;;;;;;5045488;28;20713;-80
2023/06/04 06:10:13;;;;;;;1.73;1.50;;;;;;;;;;5046123;28;20656;-81
2023/06/04 06:12:41;;;;;;;2.80;1.88;;;;;;;;;;5052238;28;20194;-80
2023/06/04 06:15:10;;;;;;;1.55;1.45;;;;;;;;;;5050591;28;20758;-80
2023/06/04 06:17:39;;;;;;;1.77;1.67;;;;;;;;;;5052035;28;20312;-82
2023/06/04 06:20:08;;;;;;;2.05;1.95;;;;;;;;;;5090601;22;20701;-78
2023/06/04 06:22:36;;;;;;;2.05;1.80;;;;;;;;;;5069710;28;20205;-75
2023/06/04 06:25:05;;;;;;;1.67;1.58;;;;;;;;;;5069318;28;20584;-75
2023/06/04 06:27:32;;;;;;;2.13;1.65;;;;;;;;;;5063620;28;20293;-76
2023/06/04 06:30:00;;;;;;;1.52;1.42;;;;;;;;;;5067618;28;20696;-75
2023/06/04 06:32:28;;;;;;;1.55;1.27;;;;;;;;;;5067257;28;20201;-76
2023/06/04 06:34:56;;;;;;;2.28;1.88;;;;;;;;;;5071540;28;20208;-76
2023/06/04 06:37:24;;;;;;;1.67;1.58;;;;;;;;;;5069444;28;20199;-78
2023/06/04 06:39:51;;;;;;;2.85;1.48;;;;;;;;;;5066793;28;20221;-76
2023/06/04 06:42:19;;;;;;;1.98;1.80;;;;;;;;;;5067975;28;20197;-76
2023/06/04 06:44:47;;;;;;;1.85;1.60;;;;;;;;;;5069027;28;20237;-76
2023/06/04 06:47:14;;;;;;;3.00;1.30;;;;;;;;;;5069214;28;20197;-76
2023/06/04 06:49:42;;;;;;;1.75;1.65;;;;;;;;;;5066742;28;20220;-75
2023/06/04 06:52:11;;;;;;;1.63;1.42;;;;;;;;;;5069364;28;20239;-77
2023/06/04 06:54:39;;;;;;;1.40;1.30;;;;;;;;;;5068218;28;20212;-77
2023/06/04 06:57:08;;;;;;;1.70;1.60;;;;;;;;;;5069815;28;20219;-77
2023/06/04 06:59:36;;;;;;;1.60;1.48;;;;;;;;;;5070209;28;20263;-77
2023/06/04 07:02:04;;;;;;;1.50;1.40;;;;;;;;;;5071063;28;20204;-77
2023/06/04 07:04:31;;;;;;;1.40;1.30;;;;;;;;;;5070590;28;20204;-77
2023/06/04 07:06:59;;;;;;;1.00;1.00;;;;;;;;;;5070932;28;20691;-77
2023/06/04 07:09:28;;;;;;;1.50;1.40;;;;;;;;;;5069713;28;20307;-77
2023/06/04 07:11:55;;;;;;;1.60;1.50;;;;;;;;;;5070829;28;20728;-77
2023/06/04 07:14:22;;;;;;;1.27;1.17;;;;;;;;;;5071180;28;20201;-76
2023/06/04 07:16:50;;;;;;;1.75;1.50;;;;;;;;;;5071366;28;20220;-77
2023/06/04 07:19:17;;;;;;;3.03;1.77;;;;;;;;;;5070397;28;20603;-77
2023/06/04 07:21:45;;;;;;;1.30;1.20;;;;;;;;;;5070162;28;20731;-77
2023/06/04 07:24:12;;;;;;;1.60;1.50;;;;;;;;;;5070666;28;20209;-77
2023/06/04 07:26:41;;;;;;;1.30;1.20;;;;;;;;;;5067751;28;20204;-77
2023/06/04 07:29:09;;;;;;;1.60;1.50;;;;;;;;;;5067214;28;20220;-77
2023/06/04 07:31:37;;;;;;;1.48;1.38;;;;;;;;;;5069025;28;20721;-77
2023/06/04 07:34:04;;;;;;;2.08;1.90;;;;;;;;;;5070139;28;20197;-77
2023/06/04 07:36:32;;;;;;;2.25;1.50;;;;;;;;;;5066148;28;20590;-77
2023/06/04 07:39:00;;;;;;;1.27;1.17;;;;;;;;;;5065666;28;20224;-76
2023/06/04 07:41:27;;;;;;;1.40;1.30;;;;;;;;;;5068008;28;20197;-77
2023/06/04 07:43:56;;;;;;;1.52;1.42;;;;;;;;;;5073163;28;20288;-77
2023/06/04 07:46:23;;;;;;;1.10;1.10;;;;;;;;;;5068217;28;20223;-76
2023/06/04 07:48:51;;;;;;;2.33;2.13;;;;;;;;;;5070060;28;20223;-77
2023/06/04 07:51:19;;;;;;;3.33;1.33;;;;;;;;;;5071745;28;20197;-77
2023/06/04 07:53:47;;;;;;;1.60;1.42;;;;;;;;;;5073308;28;20197;-76
2023/06/04 07:56:14;;;;;;;1.50;1.40;;;;;;;;;;5072820;28;20248;-76
2023/06/04 07:58:42;;;;;;;1.10;1.10;;;;;;;;;;5072792;28;20474;-76
2023/06/04 08:01:11;;;;;;;1.83;1.35;;;;;;;;;;5072188;28;20288;-77
2023/06/04 08:03:38;;;;;;;1.60;1.48;;;;;;;;;;5074239;28;20197;-77
2023/06/04 08:06:06;;;;;;;1.73;1.40;;;;;;;;;;5073088;28;20193;-77
2023/06/04 08:08:34;;;;;;;1.25;1.15;;;;;;;;;;5072119;28;20216;-77
2023/06/04 08:11:02;;;;;;;1.08;1.00;;;;;;;;;;5072243;28;20232;-77
2023/06/04 08:13:30;;;;;;;0.90;0.90;;;;;;;;;;5072815;28;20568;-77
2023/06/04 08:15:58;;;;;;;2.00;1.20;;;;;;;;;;5072792;28;20271;-78
2023/06/04 08:18:26;;;;;;;1.48;1.38;;;;;;;;;;5069098;28;20232;-78
2023/06/04 08:20:54;;;;;;;1.05;0.90;;;;;;;;;;5070839;28;20279;-77
2023/06/04 08:23:21;;;;;;;1.17;1.17;;;;;;;;;;5066240;28;20200;-78
2023/06/04 08:25:49;;;;;;;1.15;1.05;;;;;;;;;;5069039;28;20203;-78
2023/06/04 08:28:18;;;;;;;1.08;1.08;;;;;;;;;;5072995;28;20724;-79
2023/06/04 08:30:46;;;;;;;4.15;1.05;;;;;;;;;;5059421;28;20194;-78
2023/06/04 08:33:14;;;;;;;0.90;0.90;;;;;;;;;;5072516;28;20550;-79
2023/06/04 08:35:42;;;;;;;1.35;1.20;;;;;;;;;;5068764;28;20205;-79
2023/06/04 08:38:10;;;;;;;1.45;1.35;;;;;;;;;;5071944;28;20213;-79
2023/06/04 08:40:37;;;;;;;1.17;1.17;;;;;;;;;;5072401;28;20207;-79
2023/06/04 08:43:06;;;;;;;2.70;1.42;;;;;;;;;;5071971;28;20194;-78
2023/06/04 08:45:37;;;;;;;1.40;1.30;;;;;;;;;;5071739;28;20201;-77
2023/06/04 08:48:05;;;;;;;1.35;1.25;;;;;;;;;;5072322;28;20193;-78
2023/06/04 08:50:33;;;;;;;1.15;1.10;;;;;;;;;;5071992;28;20211;-77
2023/06/04 08:53:02;;;;;;;1.50;1.40;;;;;;;;;;5073053;28;20193;-78
2023/06/04 08:55:30;;;;;;;2.17;1.38;;;;;;;;;;5072314;28;20665;-78
2023/06/04 08:57:57;;;;;;;1.27;1.17;;;;;;;;;;5072510;28;20217;-78
2023/06/04 09:00:25;;;;;;;3.08;1.83;;;;;;;;;;5069747;28;20225;-78
2023/06/04 09:02:52;;;;;;;1.23;1.13;;;;;;;;;;5072854;28;20209;-79
2023/06/04 09:05:22;;;;;;;1.23;1.23;;;;;;;;;;5063297;28;20287;-78
2023/06/04 09:07:52;;;;;;;1.00;1.00;;;;;;;;;;5064888;28;20276;-78
2023/06/04 09:10:25;;;;;;;1.67;1.58;;;;;;;;;;5073908;28;20669;-78
2023/06/04 09:12:53;;;;;;;1.05;0.95;;;;;;;;;;5062495;28;20192;-78
2023/06/04 09:15:21;;;;;;;2.20;2.00;;;;;;;;;;5071780;28;20200;-80
2023/06/04 09:17:48;;;;;;;2.80;2.60;;;;;;;;;;5072968;28;20292;-79
2023/06/04 09:20:21;;;;;;;3.72;3.08;;;;;;;;;;5070995;28;20224;-79
2023/06/04 09:22:49;;;;;;;2.90;2.70;;;;;;;;;;5066214;28;20189;-80
2023/06/04 09:25:26;;;;;;;2.67;2.47;;;;;;;;;;5073247;28;20201;-80
2023/06/04 09:27:55;;;;;;;3.80;2.85;;;;;;;;;;5066544;28;20975;-79
2023/06/04 09:30:24;;;;;;;3.63;3.20;;;;;;;;;;5071347;28;20229;-80
2023/06/04 09:32:53;;;;;;;2.55;2.10;;;;;;;;;;5069582;28;22075;-80
2023/06/04 09:35:20;;;;;;;2.70;2.10;;;;;;;;;;5071242;28;20195;-80
2023/06/04 09:37:55;;;;;;;1.92;1.83;;;;;;;;;;5071772;28;20223;-80
2023/06/04 09:40:24;;;;;;;1.80;1.70;;;;;;;;;;5070747;28;20692;-80
2023/06/04 09:42:55;;;;;;;2.05;1.60;;;;;;;;;;5071288;28;20279;-79
2023/06/04 09:45:30;;;;;;;2.00;1.90;;;;;;;;;;5070087;28;20203;-80
2023/06/04 09:47:57;;;;;;;1.70;1.60;;;;;;;;;;5066017;28;20232;-79
2023/06/04 09:50:28;;;;;;;1.70;1.60;;;;;;;;;;5066269;28;20201;-78
2023/06/04 09:52:57;;;;;;;2.45;2.25;;;;;;;;;;5072128;28;20205;-79
2023/06/04 09:55:26;;;;;;;2.47;1.60;;;;;;;;;;5072429;28;20284;-80
2023/06/04 09:57:54;;;;;;;1.58;1.48;;;;;;;;;;5064592;28;20225;-79
2023/06/04 10:00:23;;;;;;;3.38;2.33;;;;;;;;;;5082486;28;20234;-78
2023/06/04 10:02:57;;;;;;;1.83;1.73;;;;;;;;;;5080529;28;20201;-77
2023/06/04 10:05:25;;;;;;;1.63;1.52;;;;;;;;;;5076958;28;20197;-78
2023/06/04 10:07:53;;;;;;;1.77;1.60;;;;;;;;;;5079586;28;20674;-77
2023/06/04 10:10:30;;;;;;;1.90;1.65;;;;;;;;;;5074051;28;20316;-78
2023/06/04 10:13:05;;;;;;;1.77;1.67;;;;;;;;;;5069535;28;20200;-78
2023/06/04 10:15:34;;;;;;;1.98;1.80;;;;;;;;;;5067740;28;20200;-78
2023/06/04 10:18:02;;;;;;;2.67;2.47;;;;;;;;;;5068498;28;20244;-78
2023/06/04 10:20:29;;;;;;;2.05;1.85;;;;;;;;;;5068749;28;20197;-78
2023/06/04 10:22:57;;;;;;;1.38;1.27;;;;;;;;;;5066717;28;20410;-79
2023/06/04 10:25:26;;;;;;;2.38;2.17;;;;;;;;;;5073313;28;20201;-78
2023/06/04 10:27:55;;;;;;;2.05;1.80;;;;;;;;;;5071046;28;20712;-79
2023/06/04 10:30:23;;;;;;;1.98;1.88;;;;;;;;;;5068062;28;20217;-78
2023/06/04 10:32:50;;;;;;;2.08;1.98;;;;;;;;;;5070229;28;20205;-78
2023/06/04 10:35:18;;;;;;;3.47;2.13;;;;;;;;;;5068876;28;20203;-78
2023/06/04 10:37:47;;;;;;;2.00;1.80;;;;;;;;;;5066929;28;20308;-78
2023/06/04 10:40:15;;;;;;;2.00;1.85;;;;;;;;;;5069694;28;20239;-78
2023/06/04 10:42:44;;;;;;;1.98;1.88;;;;;;;;;;5069645;28;20691;-78
2023/06/04 10:45:13;;;;;;;2.10;1.85;;;;;;;;;;5068570;28;20282;-78
2023/06/04 10:47:41;;;;;;;3.17;1.80;;;;;;;;;;5066388;28;20199;-78
2023/06/04 10:50:10;;;;;;;1.92;1.50;;;;;;;;;;5069891;28;20221;-78
2023/06/04 10:52:39;;;;;;;1.77;1.67;;;;;;;;;;5063849;28;20201;-79
2023/06/04 10:55:09;;;;;;;2.30;2.20;;;;;;;;;;5068373;28;20291;-76
2023/06/04 10:57:37;;;;;;;1.50;1.40;;;;;;;;;;5069640;28;20216;-78
2023/06/04 11:00:09;;;;;;;2.20;1.95;;;;;;;;;;5070284;28;20220;-78
2023/06/04 11:02:39;;;;;;;2.03;1.92;;;;;;;;;;5070813;28;20704;-78
2023/06/04 11:05:09;;;;;;;1.60;1.50;;;;;;;;;;5068303;28;20908;-78
2023/06/04 11:07:44;;;;;;;2.05;1.65;;;;;;;;;;5064582;28;20201;-78
2023/06/04 11:10:12;;;;;;;1.58;1.48;;;;;;;;;;5068216;28;20216;-77
2023/06/04 11:12:44;;;;;;;1.80;1.70;;;;;;;;;;5069643;28;20201;-77
2023/06/04 11:15:12;;;;;;;2.75;1.80;;;;;;;;;;5067526;28;20204;-77
2023/06/04 11:17:51;;;;;;;2.13;1.60;;;;;;;;;;5068152;28;20212;-77
2023/06/04 11:20:19;;;;;;;2.10;1.90;;;;;;;;;;5068700;28;20236;-78
2023/06/04 11:22:53;;;;;;;1.63;1.52;;;;;;;;;;5069395;28;20542;-77
2023/06/04 11:25:22;;;;;;;1.67;1.58;;;;;;;;;;5070763;28;20204;-78
2023/06/04 11:27:50;;;;;;;1.58;1.48;;;;;;;;;;5068908;28;20197;-77
2023/06/04 11:30:17;;;;;;;3.17;2.10;;;;;;;;;;5072388;28;20235;-77
2023/06/04 11:32:46;;;;;;;2.63;2.10;;;;;;;;;;5073128;28;20287;-77
2023/06/04 11:35:14;;;;;;;2.33;1.95;;;;;;;;;;5074621;28;20201;-76
2023/06/04 11:37:42;;;;;;;2.00;1.90;;;;;;;;;;5073145;28;20210;-77
2023/06/04 11:40:20;;;;;;;1.73;1.63;;;;;;;;;;5072394;28;20231;-77
2023/06/04 11:42:48;;;;;;;1.63;1.52;;;;;;;;;;5070753;28;20204;-76
2023/06/04 11:45:18;;;;;;;1.73;1.63;;;;;;;;;;5075049;28;20220;-77
2023/06/04 11:47:48;;;;;;;1.83;1.73;;;;;;;;;;5074015;28;20205;-77
2023/06/04 11:50:16;;;;;;;1.80;1.70;;;;;;;;;;5072995;28;20221;-78
2023/06/04 11:52:44;;;;;;;1.40;1.30;;;;;;;;;;5075071;28;20374;-77
2023/06/04 11:55:11;;;;;;;1.85;1.75;;;;;;;;;;5073847;28;20207;-77
2023/06/04 11:57:39;;;;;;;1.70;1.60;;;;;;;;;;5074470;28;20205;-77
2023/06/04 12:00:10;;;;;;;2.33;2.00;;;;;;;;;;5073068;28;20685;-77
2023/06/04 12:02:37;;;;;;;1.73;1.63;;;;;;;;;;5073451;28;20223;-77
2023/06/04 12:05:18;;;;;;;1.50;1.40;;;;;;;;;;5071159;28;20202;-78
2023/06/04 12:07:46;;;;;;;2.17;1.52;;;;;;;;;;5069688;28;20575;-77
2023/06/04 12:10:14;;;;;;;1.77;1.55;;;;;;;;;;5072012;28;20275;-77
2023/06/04 12:12:42;;;;;;;2.17;1.98;;;;;;;;;;5073424;28;20665;-77
2023/06/04 12:15:11;;;;;;;1.73;1.63;;;;;;;;;;5073344;28;20201;-77
2023/06/04 12:17:49;;;;;;;1.60;1.50;;;;;;;;;;5071141;28;20599;-77
2023/06/04 12:20:18;;;;;;;2.10;1.98;;;;;;;;;;5091540;22;20234;-77
2023/06/04 12:22:47;;;;;;;1.67;1.58;;;;;;;;;;5065306;28;20204;-78
2023/06/04 12:25:26;;;;;;;2.40;1.50;;;;;;;;;;5072831;28;20201;-78
2023/06/04 12:27:54;;;;;;;2.17;1.60;;;;;;;;;;5069367;28;20208;-77
2023/06/04 12:30:22;;;;;;;1.45;1.35;;;;;;;;;;5073983;28;20223;-78
2023/06/04 12:32:50;;;;;;;1.58;1.48;;;;;;;;;;5047455;28;20576;-77
2023/06/04 12:35:20;;;;;;;1.60;1.50;;;;;;;;;;5035205;28;20289;-80
2023/06/04 12:37:47;;;;;;;2.13;1.92;;;;;;;;;;5034882;28;20202;-80
2023/06/04 12:40:15;;;;;;;2.03;1.92;;;;;;;;;;5034759;28;20226;-80
2023/06/04 12:42:43;;;;;;;1.88;1.75;;;;;;;;;;5048580;28;20231;-80
2023/06/04 12:45:12;;;;;;;1.48;1.38;;;;;;;;;;5055324;28;20611;-78
2023/06/04 12:47:41;;;;;;;1.30;1.30;;;;;;;;;;5054248;28;20205;-76
2023/06/04 12:50:10;;;;;;;1.60;1.50;;;;;;;;;;5053363;28;20676;-81
2023/06/04 12:52:38;;;;;;;1.60;1.50;;;;;;;;;;5054765;28;20209;-77
2023/06/04 12:55:07;;;;;;;2.58;1.55;;;;;;;;;;5053988;28;20194;-77
2023/06/04 12:57:35;;;;;;;1.52;1.42;;;;;;;;;;5054109;28;20648;-78
2023/06/04 13:00:03;;;;;;;1.50;1.40;;;;;;;;;;5053798;28;20225;-77
2023/06/04 13:02:31;;;;;;;1.92;1.80;;;;;;;;;;5054185;28;20197;-78
2023/06/04 13:04:58;;;;;;;1.33;1.23;;;;;;;;;;5054065;28;20588;-77
2023/06/04 13:07:26;;;;;;;1.83;1.73;;;;;;;;;;5052344;28;20205;-77
2023/06/04 13:09:55;;;;;;;1.92;1.60;;;;;;;;;;5053140;28;20304;-78
2023/06/04 13:12:22;;;;;;;1.50;1.40;;;;;;;;;;5053660;28;20201;-76
2023/06/04 13:14:50;;;;;;;1.50;1.40;;;;;;;;;;5053318;28;20289;-77
2023/06/04 13:17:17;;;;;;;1.50;1.40;;;;;;;;;;5053399;28;20202;-77
2023/06/04 13:19:45;;;;;;;1.23;1.20;;;;;;;;;;5050484;28;20613;-76
2023/06/04 13:22:12;;;;;;;1.58;1.48;;;;;;;;;;5052197;28;20205;-76
2023/06/04 13:24:40;;;;;;;1.95;1.30;;;;;;;;;;5052088;28;20205;-77
2023/06/04 13:27:08;;;;;;;1.45;1.35;;;;;;;;;;5053285;28;20283;-79
2023/06/04 13:29:36;;;;;;;1.65;1.55;;;;;;;;;;5053803;28;20221;-76
2023/06/04 13:32:03;;;;;;;1.58;1.48;;;;;;;;;;5052894;28;20275;-77
2023/06/04 13:34:31;;;;;;;1.35;1.25;;;;;;;;;;5052088;28;20198;-77
2023/06/04 13:36:59;;;;;;;1.60;1.50;;;;;;;;;;5054277;28;20210;-79
2023/06/04 13:39:26;;;;;;;1.10;1.00;;;;;;;;;;5053015;28;20229;-79
2023/06/04 13:41:54;;;;;;;1.30;1.20;;;;;;;;;;5053698;28;20259;-80
2023/06/04 13:44:25;;;;;;;1.40;1.33;;;;;;;;;;5053003;28;20200;-79
2023/06/04 13:46:53;;;;;;;1.70;1.60;;;;;;;;;;5034282;28;20235;-78
2023/06/04 13:49:21;;;;;;;3.58;1.15;;;;;;;;;;5033764;28;20218;-79
2023/06/04 13:51:48;;;;;;;1.25;1.25;;;;;;;;;;5051180;28;20209;-80
2023/06/04 13:54:16;;;;;;;1.50;1.40;;;;;;;;;;5054579;28;20221;-80
2023/06/04 13:56:46;;;;;;;1.85;1.42;;;;;;;;;;5054003;28;20204;-77
2023/06/04 13:59:13;;;;;;;1.42;1.33;;;;;;;;;;5032444;28;20226;-77
2023/06/04 14:01:42;;;;;;;1.48;1.38;;;;;;;;;;5032702;28;20258;-78
2023/06/04 14:04:11;;;;;;;1.48;1.33;;;;;;;;;;5033280;28;20206;-78
2023/06/04 14:06:39;;;;;;;1.60;1.50;;;;;;;;;;5034322;28;20202;-77
2023/06/04 14:09:09;;;;;;;1.60;1.27;;;;;;;;;;5036579;28;20281;-78
2023/06/04 14:11:38;;;;;;;1.65;1.55;;;;;;;;;;5052937;28;20201;-78
2023/06/04 14:14:05;;;;;;;1.52;1.42;;;;;;;;;;5052842;28;20209;-78
2023/06/04 14:16:33;;;;;;;1.20;1.10;;;;;;;;;;5053716;28;20206;-78
2023/06/04 14:19:02;;;;;;;1.15;1.10;;;;;;;;;;5053601;28;20210;-79
2023/06/04 14:21:29;;;;;;;1.20;1.10;;;;;;;;;;5052749;28;20236;-78
2023/06/04 14:23:57;;;;;;;1.20;1.20;;;;;;;;;;5052461;28;20280;-78
2023/06/04 14:26:24;;;;;;;1.38;1.20;;;;;;;;;;5052420;28;20204;-78
2023/06/04 14:28:52;;;;;;;1.30;1.20;;;;;;;;;;5051610;28;20202;-78
2023/06/04 14:31:19;;;;;;;2.20;1.55;;;;;;;;;;5051983;28;20284;-78
2023/06/04 14:33:47;;;;;;;1.60;1.50;;;;;;;;;;5053015;28;20198;-78
2023/06/04 14:36:15;;;;;;;1.52;1.42;;;;;;;;;;5051593;28;20260;-78
2023/06/04 14:38:43;;;;;;;1.63;1.52;;;;;;;;;;5051518;28;20662;-77
2023/06/04 14:41:11;;;;;;;2.42;1.63;;;;;;;;;;5052640;28;20226;-78
2023/06/04 14:43:38;;;;;;;1.20;1.20;;;;;;;;;;5049469;28;20213;-77
2023/06/04 14:46:06;;;;;;;1.25;1.25;;;;;;;;;;5043369;28;20292;-77
2023/06/04 14:48:33;;;;;;;1.58;1.48;;;;;;;;;;5051833;28;20281;-78
2023/06/04 14:51:01;;;;;;;1.27;1.17;;;;;;;;;;5057029;28;20223;-78